createdAt,value
2019-02-11T00:01:45.759Z,2.67
2019-02-11T00:04:14.953Z,2.13
2019-02-11T00:06:44.116Z,2.17
2019-02-11T00:09:13.330Z,2.73
2019-02-11T00:11:42.594Z,2.33
2019-02-11T00:14:11.770Z,2.60
2019-02-11T00:16:40.969Z,2.67
2019-02-11T00:19:11.104Z,3.40
2019-02-11T00:21:40.256Z,2.90
2019-02-11T00:24:09.436Z,3.50
2019-02-11T00:26:38.637Z,3.33
2019-02-11T00:29:07.811Z,3.27
2019-02-11T00:31:36.989Z,3.47
2019-02-11T00:34:06.185Z,3.40
2019-02-11T00:36:35.337Z,2.93
2019-02-11T00:39:05.766Z,3.80
2019-02-11T00:41:34.960Z,2.90
2019-02-11T00:44:04.206Z,2.93
2019-02-11T00:46:33.393Z,3.43
2019-02-11T00:49:02.611Z,3.90
2019-02-11T00:51:31.779Z,3.13
2019-02-11T00:54:00.972Z,3.57
2019-02-11T00:56:31.159Z,3.30
2019-02-11T00:59:00.330Z,2.70
2019-02-11T01:01:29.491Z,4.13
2019-02-11T01:03:58.698Z,3.00
2019-02-11T01:06:27.882Z,3.53
2019-02-11T01:08:57.072Z,3.00
2019-02-11T01:11:26.273Z,3.50
2019-02-11T01:13:55.450Z,2.80
2019-02-11T01:16:24.625Z,3.47
2019-02-11T01:18:53.827Z,3.67
2019-02-11T01:21:22.995Z,3.70
2019-02-11T01:23:52.163Z,3.67
2019-02-11T01:26:21.468Z,3.27
2019-02-11T01:28:50.629Z,3.27
2019-02-11T01:31:19.800Z,3.10
2019-02-11T01:33:48.999Z,3.20
2019-02-11T01:36:18.173Z,3.17
2019-02-11T01:38:47.360Z,3.07
2019-02-11T01:41:16.566Z,3.27
2019-02-11T01:43:45.742Z,3.40
2019-02-11T01:46:14.976Z,3.20
2019-02-11T01:48:44.176Z,3.30
2019-02-11T01:51:13.352Z,3.40
2019-02-11T01:53:42.576Z,3.03
2019-02-11T01:56:11.764Z,2.93
2019-02-11T01:58:40.956Z,3.67
2019-02-11T02:01:10.151Z,3.50
2019-02-11T02:03:39.342Z,3.90
2019-02-11T02:06:08.507Z,3.20
2019-02-11T02:08:37.748Z,3.07
2019-02-11T02:11:06.939Z,3.40
2019-02-11T02:13:44.430Z,3.77
2019-02-11T02:16:07.028Z,3.47
2019-02-11T02:18:36.208Z,4.70
2019-02-11T02:21:05.437Z,3.43
2019-02-11T02:23:34.645Z,3.27
2019-02-11T02:26:03.857Z,4.00
2019-02-11T02:28:33.071Z,3.70
2019-02-11T02:31:02.280Z,3.63
2019-02-11T02:33:31.456Z,4.33
2019-02-11T02:36:00.640Z,3.20
2019-02-11T02:38:29.837Z,4.20
2019-02-11T02:40:59.021Z,3.77
2019-02-11T02:43:28.202Z,3.60
2019-02-11T02:45:57.391Z,3.63
2019-02-11T02:48:26.558Z,3.37
2019-02-11T02:50:55.736Z,4.23
2019-02-11T02:53:24.942Z,3.20
2019-02-11T02:55:54.115Z,3.00
2019-02-11T02:58:23.294Z,3.17
2019-02-11T03:00:52.491Z,3.37
2019-02-11T03:03:21.663Z,4.53
2019-02-11T03:05:52.813Z,3.03
2019-02-11T03:08:21.728Z,3.33
2019-02-11T03:10:50.894Z,2.87
2019-02-11T03:13:20.117Z,3.03
2019-02-11T03:15:50.258Z,3.00
2019-02-11T03:18:19.416Z,4.10
2019-02-11T03:20:48.634Z,3.83
2019-02-11T03:23:17.887Z,4.43
2019-02-11T03:25:46.970Z,3.23
2019-02-11T03:28:16.200Z,3.17
2019-02-11T03:30:45.391Z,3.27
2019-02-11T03:33:14.603Z,3.30
2019-02-11T03:35:43.759Z,2.60
2019-02-11T03:38:12.924Z,3.30
2019-02-11T03:40:42.092Z,3.40
2019-02-11T03:43:13.191Z,3.67
2019-02-11T03:45:42.358Z,3.00
2019-02-11T03:48:11.518Z,3.40
2019-02-11T03:50:40.705Z,3.43
2019-02-11T03:53:09.957Z,3.80
2019-02-11T03:55:39.147Z,3.53
2019-02-11T03:58:08.398Z,4.30
2019-02-11T04:00:37.801Z,2.80
2019-02-11T04:03:06.991Z,3.43
2019-02-11T04:05:36.163Z,3.50
2019-02-11T04:08:05.338Z,4.33
2019-02-11T04:10:52.572Z,4.40
2019-02-11T04:13:36.830Z,3.00
2019-02-11T04:16:05.984Z,3.43
2019-02-11T04:18:35.157Z,3.80
2019-02-11T04:21:04.333Z,3.20
2019-02-11T04:23:33.525Z,3.77
2019-02-11T04:26:02.698Z,3.90
2019-02-11T04:28:32.137Z,3.93
2019-02-11T04:31:01.324Z,3.60
2019-02-11T04:33:30.496Z,3.90
2019-02-11T04:35:59.618Z,3.87
2019-02-11T04:38:28.757Z,4.30
2019-02-11T04:40:57.962Z,4.03
2019-02-11T04:43:27.141Z,4.57
2019-02-11T04:45:56.257Z,4.93
2019-02-11T04:48:25.450Z,5.10
2019-02-11T04:50:54.627Z,4.13
2019-02-11T04:53:23.837Z,4.30
2019-02-11T04:55:52.934Z,3.83
2019-02-11T04:58:22.117Z,4.43
2019-02-11T05:00:51.572Z,3.83
2019-02-11T05:03:20.746Z,3.37
2019-02-11T05:05:49.904Z,3.97
2019-02-11T05:08:19.099Z,3.73
2019-02-11T05:10:48.285Z,3.73
2019-02-11T05:13:17.460Z,4.03
2019-02-11T05:15:46.662Z,3.30
2019-02-11T05:18:16.913Z,3.50
2019-02-11T05:20:46.390Z,3.37
2019-02-11T05:23:15.590Z,3.87
2019-02-11T05:25:44.810Z,3.77
2019-02-11T05:28:13.977Z,4.47
2019-02-11T05:30:43.309Z,3.53
2019-02-11T05:33:12.513Z,3.40
2019-02-11T05:35:41.686Z,3.07
2019-02-11T05:38:10.885Z,3.93
2019-02-11T05:40:40.059Z,3.70
2019-02-11T05:43:09.254Z,3.20
2019-02-11T05:45:38.410Z,3.27
2019-02-11T05:48:07.599Z,3.33
2019-02-11T05:50:36.756Z,3.77
2019-02-11T05:53:05.949Z,4.30
2019-02-11T05:55:35.120Z,3.63
2019-02-11T05:58:04.300Z,4.83
2019-02-11T06:00:33.501Z,3.60
2019-02-11T06:03:02.679Z,3.37
2019-02-11T06:05:31.859Z,3.57
2019-02-11T06:08:01.048Z,4.33
2019-02-11T06:10:30.248Z,4.67
2019-02-11T06:12:59.423Z,3.80
2019-02-11T06:15:28.601Z,5.10
2019-02-11T06:17:57.801Z,3.30
2019-02-11T06:20:26.995Z,3.13
2019-02-11T06:22:56.174Z,3.47
2019-02-11T06:25:25.371Z,3.67
2019-02-11T06:27:54.547Z,3.47
2019-02-11T06:30:23.800Z,3.53
2019-02-11T06:32:53.015Z,3.70
2019-02-11T06:35:22.186Z,3.70
2019-02-11T06:37:51.376Z,4.07
2019-02-11T06:40:20.541Z,4.10
2019-02-11T06:42:49.737Z,3.70
2019-02-11T06:45:18.969Z,3.33
2019-02-11T06:47:48.155Z,2.87
2019-02-11T06:50:17.330Z,4.77
2019-02-11T06:52:46.519Z,3.83
2019-02-11T06:55:15.693Z,3.50
2019-02-11T06:57:44.887Z,3.30
2019-02-11T07:00:15.510Z,3.10
2019-02-11T07:02:44.696Z,3.80
2019-02-11T07:05:13.907Z,3.30
2019-02-11T07:07:43.104Z,4.40
2019-02-11T07:10:12.524Z,3.43
2019-02-11T07:12:41.718Z,3.60
2019-02-11T07:15:21.223Z,3.87
2019-02-11T07:17:44.299Z,3.57
2019-02-11T07:20:13.589Z,3.67
2019-02-11T07:22:42.753Z,4.40
2019-02-11T07:25:11.985Z,4.20
2019-02-11T07:27:41.270Z,3.83
2019-02-11T07:30:12.768Z,4.43
2019-02-11T07:32:41.940Z,5.40
2019-02-11T07:35:11.210Z,5.30
2019-02-11T07:37:40.375Z,3.90
2019-02-11T07:40:13.779Z,4.63
2019-02-11T07:42:53.112Z,4.20
2019-02-11T07:45:35.715Z,4.70
2019-02-11T07:48:05.018Z,4.27
2019-02-11T07:50:34.216Z,4.63
2019-02-11T07:53:04.406Z,4.27
2019-02-11T07:55:33.594Z,4.47
2019-02-11T07:58:02.778Z,4.27
2019-02-11T08:00:31.964Z,4.53
2019-02-11T08:03:01.260Z,3.87
2019-02-11T08:05:30.418Z,4.47
2019-02-11T08:07:59.870Z,3.83
2019-02-11T08:10:29.370Z,4.20
2019-02-11T08:12:58.532Z,4.40
2019-02-11T08:15:27.712Z,4.97
2019-02-11T08:17:58.208Z,3.50
2019-02-11T08:20:27.489Z,4.50
2019-02-11T08:22:56.660Z,4.33
2019-02-11T08:25:25.838Z,4.30
2019-02-11T08:27:55.016Z,5.20
2019-02-11T08:30:24.275Z,4.07
2019-02-11T08:32:53.444Z,4.83
2019-02-11T08:35:22.692Z,4.40
2019-02-11T08:37:51.858Z,3.93
2019-02-11T08:40:21.126Z,4.73
2019-02-11T08:42:50.306Z,4.80
2019-02-11T08:45:19.504Z,3.93
2019-02-11T08:47:48.717Z,3.63
2019-02-11T08:50:18.634Z,3.70
2019-02-11T08:52:47.890Z,3.93
2019-02-11T08:55:17.134Z,3.70
2019-02-11T08:57:46.323Z,3.43
2019-02-11T09:00:15.570Z,3.23
2019-02-11T09:02:44.828Z,3.47
2019-02-11T09:05:14.143Z,4.03
2019-02-11T09:07:43.335Z,3.63
2019-02-11T09:10:13.335Z,3.37
2019-02-11T09:12:42.504Z,3.20
2019-02-11T09:15:12.974Z,2.77
2019-02-11T09:17:42.150Z,3.00
2019-02-11T09:20:11.760Z,3.07
2019-02-11T09:22:40.994Z,3.33
2019-02-11T09:25:10.859Z,4.30
2019-02-11T09:27:40.068Z,3.33
2019-02-11T09:30:17.030Z,3.30
2019-02-11T09:32:46.233Z,3.13
2019-02-11T09:35:15.419Z,3.47
2019-02-11T09:37:44.593Z,3.00
2019-02-11T09:40:15.727Z,3.27
2019-02-11T09:42:44.974Z,3.30
2019-02-11T09:45:20.051Z,3.13
2019-02-11T09:47:49.334Z,4.67
2019-02-11T09:50:33.167Z,3.23
2019-02-11T09:53:03.298Z,2.60
2019-02-11T09:55:33.916Z,3.07
2019-02-11T09:58:03.156Z,3.53
2019-02-11T10:00:32.435Z,3.40
2019-02-11T10:03:01.610Z,3.10
2019-02-11T10:05:30.778Z,2.40
2019-02-11T10:07:59.965Z,2.60
2019-02-11T10:10:29.129Z,3.47
2019-02-11T10:12:58.316Z,3.30
2019-02-11T10:15:27.507Z,2.70
2019-02-11T10:17:57.119Z,4.10
2019-02-11T10:20:26.372Z,2.33
2019-02-11T10:22:55.603Z,2.37
2019-02-11T10:25:27.427Z,2.67
2019-02-11T10:28:02.820Z,2.30
2019-02-11T10:30:32.010Z,3.00
2019-02-11T10:33:01.183Z,2.40
2019-02-11T10:35:30.432Z,3.17
2019-02-11T10:37:59.646Z,3.03
2019-02-11T10:40:28.842Z,2.93
2019-02-11T10:42:58.034Z,2.87
2019-02-11T10:45:27.293Z,3.17
2019-02-11T10:47:56.498Z,2.93
2019-02-11T10:50:25.689Z,2.67
2019-02-11T10:52:54.954Z,2.90
2019-02-11T10:55:24.289Z,2.63
2019-02-11T10:57:53.482Z,2.90
2019-02-11T11:00:41.363Z,2.73
2019-02-11T11:03:28.321Z,2.43
2019-02-11T11:05:57.538Z,2.80
2019-02-11T11:08:26.726Z,2.87
2019-02-11T11:10:55.966Z,3.00
2019-02-11T11:13:25.170Z,3.40
2019-02-11T11:15:54.366Z,2.87
2019-02-11T11:18:23.561Z,3.20
2019-02-11T11:20:52.773Z,2.83
2019-02-11T11:23:21.951Z,3.10
2019-02-11T11:25:51.188Z,3.37
2019-02-11T11:28:20.388Z,3.30
2019-02-11T11:30:49.564Z,3.00
2019-02-11T11:33:18.729Z,2.57
2019-02-11T11:35:47.943Z,2.67
2019-02-11T11:38:17.114Z,2.80
2019-02-11T11:40:46.291Z,2.90
2019-02-11T11:43:15.488Z,2.70
2019-02-11T11:45:44.668Z,2.50
2019-02-11T11:48:13.833Z,2.90
2019-02-11T11:50:43.128Z,2.53
2019-02-11T11:53:12.305Z,2.70
2019-02-11T11:55:41.541Z,2.87
2019-02-11T11:58:10.730Z,2.87
2019-02-11T12:00:39.987Z,2.77
2019-02-11T12:03:09.218Z,3.43
2019-02-11T12:05:38.499Z,2.90
2019-02-11T12:08:07.687Z,3.40
2019-02-11T12:10:36.872Z,2.43
2019-02-11T12:13:21.789Z,2.30
2019-02-11T12:15:37.274Z,2.83
2019-02-11T12:18:06.787Z,2.70
2019-02-11T12:20:36.075Z,3.30
2019-02-11T12:23:05.239Z,2.50
2019-02-11T12:25:34.423Z,3.03
2019-02-11T12:28:03.626Z,2.50
2019-02-11T12:30:32.887Z,2.90
2019-02-11T12:33:02.462Z,2.60
2019-02-11T12:35:31.635Z,2.60
2019-02-11T12:38:00.797Z,2.40
2019-02-11T12:40:30.006Z,2.33
2019-02-11T12:42:59.205Z,2.80
2019-02-11T12:45:28.377Z,2.93
2019-02-11T12:47:57.543Z,2.33
2019-02-11T12:50:26.851Z,3.17
2019-02-11T12:52:56.036Z,2.47
2019-02-11T12:55:25.222Z,2.93
2019-02-11T12:57:54.428Z,3.07
2019-02-11T13:00:24.318Z,2.47
2019-02-11T13:02:53.499Z,3.50
2019-02-11T13:05:40.226Z,3.47
2019-02-11T13:07:53.614Z,2.60
2019-02-11T13:10:22.922Z,2.90
2019-02-11T13:12:52.205Z,3.23
2019-02-11T13:15:53.225Z,3.33
2019-02-11T13:17:52.361Z,2.70
2019-02-11T13:20:21.610Z,3.53
2019-02-11T13:22:50.784Z,3.07
2019-02-11T13:25:20.017Z,2.13
2019-02-11T13:27:49.246Z,2.80
2019-02-11T13:30:23.228Z,3.87
2019-02-11T13:32:52.487Z,2.83
2019-02-11T13:35:21.693Z,4.50
2019-02-11T13:37:54.747Z,2.90
2019-02-11T13:40:21.701Z,2.53
2019-02-11T13:42:50.909Z,2.83
2019-02-11T13:45:21.289Z,3.47
2019-02-11T13:47:56.045Z,2.50
2019-02-11T13:50:24.484Z,2.93
2019-02-11T13:52:54.565Z,4.17
2019-02-11T13:55:24.140Z,3.37
2019-02-11T13:57:53.794Z,2.83
2019-02-11T14:00:33.858Z,3.07
2019-02-11T14:03:05.694Z,3.00
2019-02-11T14:05:35.223Z,2.87
2019-02-11T14:08:05.907Z,3.43
2019-02-11T14:10:35.341Z,3.53
2019-02-11T14:13:05.188Z,2.80
2019-02-11T14:15:34.428Z,3.10
2019-02-11T14:18:13.075Z,2.70
2019-02-11T14:20:39.932Z,4.27
2019-02-11T14:23:09.254Z,3.33
2019-02-11T14:25:44.860Z,3.03
2019-02-11T14:28:09.398Z,3.03
2019-02-11T14:30:38.649Z,3.43
2019-02-11T14:33:08.052Z,3.17
2019-02-11T14:35:37.440Z,3.50
2019-02-11T14:38:06.647Z,3.23
2019-02-11T14:40:35.918Z,3.40
2019-02-11T14:43:05.164Z,3.13
2019-02-11T14:45:34.349Z,2.83
2019-02-11T14:48:03.599Z,2.70
2019-02-11T14:50:32.792Z,3.17
2019-02-11T14:53:01.989Z,2.93
2019-02-11T14:55:31.179Z,3.37
2019-02-11T14:58:01.896Z,3.43
2019-02-11T15:00:31.074Z,3.37
2019-02-11T15:03:00.328Z,2.40
2019-02-11T15:05:29.509Z,3.03
2019-02-11T15:07:58.685Z,3.90
2019-02-11T15:10:27.896Z,2.50
2019-02-11T15:12:57.078Z,3.00
2019-02-11T15:15:26.276Z,3.23
2019-02-11T15:17:55.462Z,3.13
2019-02-11T15:20:25.489Z,3.33
2019-02-11T15:22:54.687Z,2.47
2019-02-11T15:25:23.941Z,2.97
2019-02-11T15:27:53.109Z,2.93
2019-02-11T15:30:22.314Z,2.70
2019-02-11T15:32:51.477Z,3.00
2019-02-11T15:35:20.641Z,3.87
2019-02-11T15:37:49.858Z,3.00
2019-02-11T15:40:22.091Z,3.20
2019-02-11T15:42:51.272Z,3.60
2019-02-11T15:45:20.471Z,3.17
2019-02-11T15:47:49.658Z,2.97
2019-02-11T15:50:18.904Z,2.63
2019-02-11T15:52:48.134Z,2.77
2019-02-11T15:55:21.255Z,3.10
2019-02-11T15:57:50.405Z,2.80
2019-02-11T16:00:23.362Z,3.20
2019-02-11T16:02:52.631Z,3.07
2019-02-11T16:05:21.821Z,3.23
2019-02-11T16:07:51.008Z,2.90
2019-02-11T16:10:25.870Z,3.10
2019-02-11T16:12:55.088Z,3.17
2019-02-11T16:15:24.370Z,2.90
2019-02-11T16:17:53.590Z,4.50
2019-02-11T16:20:22.762Z,3.47
2019-02-11T16:22:51.948Z,3.70
2019-02-11T16:25:21.235Z,4.57
2019-02-11T16:27:50.422Z,3.17
2019-02-11T16:30:22.325Z,3.47
2019-02-11T16:32:51.543Z,3.70
2019-02-11T16:35:20.803Z,3.70
2019-02-11T16:37:49.976Z,3.30
2019-02-11T16:40:24.756Z,2.97
2019-02-11T16:42:53.986Z,3.47
2019-02-11T16:45:23.514Z,3.13
2019-02-11T16:47:52.709Z,3.80
2019-02-11T16:50:21.883Z,3.67
2019-02-11T16:52:51.070Z,4.23
2019-02-11T16:55:20.269Z,4.00
2019-02-11T16:57:49.451Z,4.07
2019-02-11T17:00:19.684Z,3.70
2019-02-11T17:02:48.877Z,3.07
2019-02-11T17:05:18.044Z,3.60
2019-02-11T17:07:47.243Z,3.70
2019-02-11T17:10:16.563Z,3.40
2019-02-11T17:12:45.898Z,3.50
2019-02-11T17:15:19.281Z,4.07
2019-02-11T17:17:48.555Z,4.20
2019-02-11T17:20:17.886Z,3.07
2019-02-11T17:22:47.118Z,4.63
2019-02-11T17:25:16.283Z,4.07
2019-02-11T17:27:45.482Z,4.13
2019-02-11T17:30:17.752Z,4.97
2019-02-11T17:32:46.944Z,3.83
2019-02-11T17:35:16.138Z,3.77
2019-02-11T17:37:45.322Z,3.53
2019-02-11T17:40:14.770Z,4.00
2019-02-11T17:42:44.021Z,3.90
2019-02-11T17:45:21.185Z,4.60
2019-02-11T17:47:50.389Z,3.87
2019-02-11T17:50:19.631Z,5.10
2019-02-11T17:52:50.656Z,3.77
2019-02-11T17:55:19.861Z,3.90
2019-02-11T17:57:49.335Z,4.63
2019-02-11T18:00:25.748Z,3.53
2019-02-11T18:02:54.919Z,4.27
2019-02-11T18:05:24.094Z,4.57
2019-02-11T18:07:53.303Z,4.57
2019-02-11T18:10:22.477Z,4.40
2019-02-11T18:12:53.413Z,4.47
2019-02-11T18:15:22.703Z,4.63
2019-02-11T18:17:53.506Z,4.43
2019-02-11T18:20:22.689Z,4.13
2019-02-11T18:22:51.898Z,3.50
2019-02-11T18:25:21.086Z,3.70
2019-02-11T18:27:50.281Z,3.93
2019-02-11T18:30:22.254Z,3.13
2019-02-11T18:32:53.241Z,3.23
2019-02-11T18:35:22.986Z,3.80
2019-02-11T18:37:52.471Z,4.07
2019-02-11T18:40:21.652Z,3.27
2019-02-11T18:42:50.868Z,3.90
2019-02-11T18:45:20.110Z,3.03
2019-02-11T18:47:50.588Z,3.40
2019-02-11T18:50:20.993Z,3.37
2019-02-11T18:52:50.938Z,3.70
2019-02-11T18:55:21.371Z,3.20
2019-02-11T18:57:50.967Z,3.50
2019-02-11T19:00:20.445Z,3.93
2019-02-11T19:02:49.898Z,3.87
2019-02-11T19:05:19.146Z,4.77
2019-02-11T19:07:48.343Z,4.47
2019-02-11T19:10:18.973Z,4.60
2019-02-11T19:12:48.230Z,4.87
2019-02-11T19:15:18.693Z,5.20
2019-02-11T19:17:47.979Z,4.77
2019-02-11T19:20:17.931Z,5.00
2019-02-11T19:22:47.083Z,4.80
2019-02-11T19:25:16.274Z,4.60
2019-02-11T19:27:45.617Z,5.10
2019-02-11T19:30:21.010Z,4.33
2019-02-11T19:32:50.385Z,5.37
2019-02-11T19:35:19.719Z,4.10
2019-02-11T19:37:48.904Z,4.20
2019-02-11T19:40:19.537Z,4.43
2019-02-11T19:42:49.179Z,3.83
2019-02-11T19:45:20.977Z,4.67
2019-02-11T19:47:50.303Z,4.63
2019-02-11T19:50:19.613Z,3.93
2019-02-11T19:52:48.856Z,3.83
2019-02-11T19:55:18.171Z,4.47
2019-02-11T19:57:47.390Z,4.20
2019-02-11T20:00:23.447Z,4.80
2019-02-11T20:02:52.655Z,4.77
2019-02-11T20:05:21.848Z,4.37
2019-02-11T20:07:51.025Z,4.50
2019-02-11T20:10:21.765Z,3.93
2019-02-11T20:12:50.981Z,3.37
2019-02-11T20:15:23.204Z,3.73
2019-02-11T20:17:52.391Z,4.43
2019-02-11T20:20:22.927Z,5.27
2019-02-11T20:22:52.181Z,4.00
2019-02-11T20:25:21.459Z,6.27
2019-02-11T20:27:50.639Z,4.47
2019-02-11T20:30:25.606Z,4.03
2019-02-11T20:32:56.351Z,4.47
2019-02-11T20:35:25.599Z,4.70
2019-02-11T20:37:54.795Z,3.30
2019-02-11T20:40:28.542Z,3.90
2019-02-11T20:42:57.719Z,5.07
2019-02-11T20:45:29.966Z,4.87
2019-02-11T20:47:59.290Z,4.57
2019-02-11T20:50:28.516Z,4.53
2019-02-11T20:52:57.721Z,4.43
2019-02-11T20:55:26.903Z,4.17
2019-02-11T20:57:58.515Z,4.43
2019-02-11T21:00:27.885Z,4.27
2019-02-11T21:02:57.049Z,4.13
2019-02-11T21:05:26.392Z,5.03
2019-02-11T21:07:55.684Z,4.60
2019-02-11T21:10:25.900Z,4.50
2019-02-11T21:12:55.753Z,4.80
2019-02-11T21:15:26.790Z,4.67
2019-02-11T21:17:55.960Z,4.70
2019-02-11T21:20:28.267Z,4.10
2019-02-11T21:22:57.501Z,4.33
2019-02-11T21:25:26.664Z,5.10
2019-02-11T21:27:55.852Z,4.63
2019-02-11T21:30:25.055Z,4.80
2019-02-11T21:32:54.227Z,5.00
2019-02-11T21:35:23.401Z,3.47
2019-02-11T21:37:52.611Z,3.90
2019-02-11T21:40:21.801Z,5.17
2019-02-11T21:42:50.997Z,4.67
2019-02-11T21:45:20.172Z,4.03
2019-02-11T21:47:49.348Z,3.80
2019-02-11T21:50:26.362Z,4.87
2019-02-11T21:52:51.272Z,3.87
2019-02-11T21:55:22.715Z,4.40
2019-02-11T21:57:51.881Z,4.23
2019-02-11T22:00:22.218Z,4.20
2019-02-11T22:02:51.398Z,4.63
2019-02-11T22:05:20.579Z,4.50
2019-02-11T22:07:49.780Z,3.90
2019-02-11T22:10:23.545Z,4.40
2019-02-11T22:12:52.728Z,3.90
2019-02-11T22:15:21.914Z,4.03
2019-02-11T22:17:51.164Z,3.97
2019-02-11T22:20:21.272Z,3.77
2019-02-11T22:22:50.550Z,4.43
2019-02-11T22:25:19.719Z,4.90
2019-02-11T22:27:48.898Z,3.57
2019-02-11T22:30:23.023Z,4.00
2019-02-11T22:32:52.195Z,3.90
2019-02-11T22:35:21.389Z,4.85
2019-02-11T22:37:51.327Z,3.93
2019-02-11T22:40:20.518Z,3.58
2019-02-11T22:42:49.706Z,3.73
2019-02-11T22:45:27.266Z,4.25
2019-02-11T22:47:56.453Z,4.47
2019-02-11T22:50:25.634Z,3.73
2019-02-11T22:52:54.824Z,3.97
2019-02-11T22:55:24.002Z,4.22
2019-02-11T22:57:53.186Z,3.52
2019-02-11T23:00:27.245Z,3.72
2019-02-11T23:02:56.425Z,3.30
2019-02-11T23:05:25.629Z,3.97
2019-02-11T23:07:54.823Z,3.30
2019-02-11T23:10:24.056Z,3.30
2019-02-11T23:12:53.229Z,4.10
2019-02-11T23:15:22.461Z,3.20
2019-02-11T23:17:51.629Z,2.97
2019-02-11T23:20:20.964Z,4.00
2019-02-11T23:22:50.171Z,3.20
2019-02-11T23:25:19.364Z,4.00
2019-02-11T23:27:48.553Z,3.67
2019-02-11T23:30:17.750Z,4.78
2019-02-11T23:32:46.940Z,3.50
2019-02-11T23:35:16.138Z,3.87
2019-02-11T23:37:45.318Z,2.70
2019-02-11T23:40:14.501Z,4.20
2019-02-11T23:42:43.795Z,3.10
2019-02-11T23:45:13.988Z,3.40
2019-02-11T23:47:43.276Z,3.27
2019-02-11T23:50:12.730Z,3.87
2019-02-11T23:52:41.910Z,3.70
2019-02-11T23:55:11.260Z,3.03
2019-02-11T23:57:40.434Z,3.50
